createdAt,value
2019-01-19T00:01:41.878Z,99.90
2019-01-19T00:04:33.291Z,99.90
2019-01-19T00:07:26.228Z,99.90
2019-01-19T00:10:13.376Z,99.90
2019-01-19T00:12:49.673Z,99.90
2019-01-19T00:15:27.087Z,99.90
2019-01-19T00:17:59.253Z,99.90
2019-01-19T00:20:31.050Z,99.90
2019-01-19T00:23:19.357Z,99.90
2019-01-19T00:26:15.284Z,99.90
2019-01-19T00:28:49.412Z,99.90
2019-01-19T00:31:32.936Z,99.90
2019-01-19T00:34:16.694Z,99.90
2019-01-19T00:36:50.984Z,99.90
2019-01-19T00:39:22.904Z,99.90
2019-01-19T00:41:57.094Z,99.90
2019-01-19T00:44:40.529Z,99.90
2019-01-19T00:47:31.664Z,99.90
2019-01-19T00:50:03.317Z,99.90
2019-01-19T00:52:56.845Z,99.90
2019-01-19T00:55:46.619Z,99.90
2019-01-19T00:58:36.195Z,99.90
2019-01-19T01:01:10.721Z,99.90
2019-01-19T01:03:44.173Z,99.90
2019-01-19T01:06:24.872Z,99.90
2019-01-19T01:09:32.187Z,99.90
2019-01-19T01:12:06.303Z,99.90
2019-01-19T01:15:10.748Z,99.90
2019-01-19T01:17:40.464Z,99.90
2019-01-19T01:20:23.681Z,99.90
2019-01-19T01:23:04.336Z,99.90
2019-01-19T01:25:54.227Z,99.90
2019-01-19T01:28:41.092Z,99.90
2019-01-19T01:31:15.501Z,99.90
2019-01-19T01:34:06.523Z,99.90
2019-01-19T01:36:38.166Z,99.90
2019-01-19T01:39:45.930Z,99.90
2019-01-19T01:42:40.538Z,99.90
2019-01-19T01:45:15.245Z,99.90
2019-01-19T01:48:07.830Z,99.90
2019-01-19T01:50:48.544Z,99.90
2019-01-19T01:53:32.097Z,99.90
2019-01-19T01:56:00.613Z,99.90
2019-01-19T01:58:32.301Z,99.90
2019-01-19T02:01:18.811Z,99.90
2019-01-19T02:03:56.228Z,99.90
2019-01-19T02:06:43.080Z,99.90
2019-01-19T02:09:41.889Z,99.90
2019-01-19T02:12:36.172Z,99.90
2019-01-19T02:15:13.561Z,99.90
2019-01-19T02:17:47.891Z,99.90
2019-01-19T02:20:31.416Z,99.90
2019-01-19T02:23:03.052Z,99.90
2019-01-19T02:25:54.129Z,99.90
2019-01-19T02:28:25.778Z,99.90
2019-01-19T02:31:00.294Z,99.90
2019-01-19T02:33:34.521Z,99.90
2019-01-19T02:36:20.884Z,99.90
2019-01-19T02:38:52.560Z,99.90
2019-01-19T02:41:29.689Z,99.90
2019-01-19T02:44:22.454Z,99.90
2019-01-19T02:46:59.971Z,99.90
2019-01-19T02:49:51.225Z,99.90
2019-01-19T02:52:31.569Z,99.90
2019-01-19T02:55:18.048Z,99.90
2019-01-19T02:58:05.946Z,99.90
2019-01-19T03:00:52.188Z,99.90
2019-01-19T03:03:43.363Z,99.90
2019-01-19T03:06:17.772Z,99.90
2019-01-19T03:09:01.458Z,99.90
2019-01-19T03:11:48.304Z,99.90
2019-01-19T03:14:36.568Z,99.90
2019-01-19T03:17:13.976Z,99.90
2019-01-19T03:19:45.644Z,99.90
2019-01-19T03:22:35.061Z,99.90
2019-01-19T03:25:24.558Z,99.90
2019-01-19T03:28:17.208Z,99.90
2019-01-19T03:31:22.297Z,99.90
2019-01-19T03:34:22.917Z,99.90
2019-01-19T03:37:23.100Z,99.90
2019-01-19T03:40:00.543Z,99.90
2019-01-19T03:42:51.708Z,99.90
2019-01-19T03:45:32.531Z,99.90
2019-01-19T03:48:29.847Z,99.90
2019-01-19T03:51:09.761Z,99.90
2019-01-19T03:53:56.775Z,99.90
2019-01-19T03:56:34.144Z,99.90
2019-01-19T03:59:17.533Z,99.90
2019-01-19T04:01:55.267Z,99.90
2019-01-19T04:04:35.834Z,99.90
2019-01-19T04:07:24.085Z,99.90
2019-01-19T04:10:13.989Z,99.90
2019-01-19T04:12:48.232Z,99.90
2019-01-19T04:15:43.556Z,99.90
2019-01-19T04:18:39.112Z,99.90
2019-01-19T04:21:31.584Z,99.90
2019-01-19T04:24:03.228Z,99.90
2019-01-19T04:26:33.972Z,99.90
2019-01-19T04:29:03.264Z,99.90
2019-01-19T04:31:31.673Z,99.90
2019-01-19T04:34:00.053Z,99.90
2019-01-19T04:36:29.141Z,99.90
2019-01-19T04:38:57.678Z,99.90
2019-01-19T04:41:26.082Z,99.90
2019-01-19T04:43:54.460Z,99.90
2019-01-19T04:46:22.876Z,99.90
2019-01-19T04:48:51.421Z,99.90
2019-01-19T04:51:19.832Z,99.90
2019-01-19T04:53:48.214Z,99.90
2019-01-19T04:56:16.621Z,99.90
2019-01-19T04:58:45.006Z,99.90
2019-01-19T05:01:13.391Z,99.90
2019-01-19T05:03:41.797Z,99.90
2019-01-19T05:06:12.339Z,99.90
2019-01-19T05:08:40.232Z,99.90
2019-01-19T05:11:08.604Z,99.90
2019-01-19T05:13:37.016Z,99.90
2019-01-19T05:16:05.398Z,99.90
2019-01-19T05:18:33.887Z,99.90
2019-01-19T05:21:02.443Z,99.90
2019-01-19T05:23:30.909Z,99.90
2019-01-19T05:25:59.287Z,99.90
2019-01-19T05:28:27.700Z,99.90
2019-01-19T05:30:56.080Z,99.90
2019-01-19T05:33:24.493Z,99.90
2019-01-19T05:35:52.868Z,99.90
2019-01-19T05:38:21.250Z,99.90
2019-01-19T05:40:49.729Z,99.90
2019-01-19T05:43:18.108Z,99.90
2019-01-19T05:45:46.512Z,99.90
2019-01-19T05:48:14.893Z,99.90
2019-01-19T05:50:43.296Z,99.90
2019-01-19T05:53:11.673Z,99.90
2019-01-19T05:55:40.073Z,99.90
2019-01-19T05:58:08.447Z,99.90
2019-01-19T06:00:37.032Z,99.90
2019-01-19T06:03:05.410Z,99.90
2019-01-19T06:05:33.813Z,99.90
2019-01-19T06:08:02.186Z,99.90
2019-01-19T06:10:30.603Z,99.90
2019-01-19T06:12:58.966Z,99.90
2019-01-19T06:15:27.376Z,99.90
2019-01-19T06:17:55.753Z,99.90
2019-01-19T06:20:24.247Z,99.90
2019-01-19T06:22:52.616Z,99.90
2019-01-19T06:25:20.999Z,99.90
2019-01-19T06:27:49.397Z,99.90
2019-01-19T06:30:20.673Z,99.90
2019-01-19T06:32:49.077Z,99.90
2019-01-19T06:35:17.530Z,99.90
2019-01-19T06:37:45.933Z,99.90
2019-01-19T06:40:16.242Z,99.90
2019-01-19T06:42:44.645Z,99.90
2019-01-19T06:45:15.819Z,99.90
2019-01-19T06:47:44.226Z,99.90
2019-01-19T06:50:17.022Z,99.90
2019-01-19T06:52:45.444Z,99.90
2019-01-19T06:55:16.634Z,99.90
2019-01-19T06:57:45.044Z,99.90
2019-01-19T07:00:16.219Z,99.90
2019-01-19T07:02:44.638Z,99.90
2019-01-19T07:05:13.552Z,99.90
2019-01-19T07:07:41.961Z,99.90
2019-01-19T07:10:24.766Z,99.90
2019-01-19T07:12:53.173Z,99.90
2019-01-19T07:15:21.549Z,99.90
2019-01-19T07:17:49.965Z,99.90
2019-01-19T07:20:23.780Z,99.90
2019-01-19T07:22:52.185Z,99.90
2019-01-19T07:25:20.556Z,99.90
2019-01-19T07:27:48.972Z,99.90
2019-01-19T07:30:17.616Z,99.90
2019-01-19T07:32:47.101Z,99.90
2019-01-19T07:35:16.150Z,99.90
2019-01-19T07:37:44.726Z,99.90
2019-01-19T07:40:18.418Z,99.90
2019-01-19T07:42:52.045Z,99.90
2019-01-19T07:45:20.874Z,99.90
2019-01-19T07:47:49.399Z,99.90
2019-01-19T07:50:19.930Z,99.90
2019-01-19T07:52:48.856Z,99.90
2019-01-19T07:55:19.363Z,99.90
2019-01-19T07:57:48.442Z,99.90
2019-01-19T08:00:28.861Z,99.90
2019-01-19T08:02:57.711Z,99.90
2019-01-19T08:05:26.456Z,99.90
2019-01-19T08:07:55.165Z,99.90
2019-01-19T08:10:25.273Z,99.90
2019-01-19T08:12:54.475Z,99.90
2019-01-19T08:15:25.453Z,99.90
2019-01-19T08:17:54.273Z,99.90
2019-01-19T08:20:23.238Z,99.90
2019-01-19T08:22:51.782Z,99.90
2019-01-19T08:25:20.156Z,99.90
2019-01-19T08:27:48.782Z,99.90
2019-01-19T08:30:25.286Z,99.90
2019-01-19T08:32:53.925Z,99.90
2019-01-19T08:35:22.362Z,99.90
2019-01-19T08:37:50.732Z,99.90
2019-01-19T08:40:25.173Z,87.10
2019-01-19T08:42:55.193Z,83.70
2019-01-19T08:45:23.885Z,68.30
2019-01-19T08:47:52.259Z,61.90
2019-01-19T08:50:20.665Z,56.30
2019-01-19T08:52:50.557Z,52.30
2019-01-19T08:55:19.664Z,47.60
2019-01-19T08:58:04.770Z,51.50
2019-01-19T09:00:28.370Z,56.10
2019-01-19T09:02:56.777Z,58.60
2019-01-19T09:05:25.181Z,57.30
2019-01-19T09:07:53.553Z,54.30
2019-01-19T09:10:21.960Z,53.20
2019-01-19T09:12:50.358Z,49.00
2019-01-19T09:15:21.215Z,51.80
2019-01-19T09:17:49.593Z,53.80
2019-01-19T09:20:18.361Z,55.00
2019-01-19T09:22:48.374Z,54.10
2019-01-19T09:25:17.013Z,50.20
2019-01-19T09:27:45.427Z,50.00
2019-01-19T09:30:22.173Z,48.40
2019-01-19T09:32:50.742Z,46.80
2019-01-19T09:35:19.152Z,48.00
2019-01-19T09:37:48.423Z,48.60
2019-01-19T09:40:17.903Z,49.10
2019-01-19T09:42:46.478Z,47.80
2019-01-19T09:45:18.918Z,50.00
2019-01-19T09:47:47.330Z,51.50
2019-01-19T09:50:17.478Z,53.00
2019-01-19T09:52:46.006Z,54.40
2019-01-19T09:55:14.411Z,54.60
2019-01-19T09:57:42.910Z,52.10
2019-01-19T10:00:17.205Z,50.40
2019-01-19T10:02:45.642Z,48.20
2019-01-19T10:05:17.219Z,46.20
2019-01-19T10:07:48.682Z,43.70
2019-01-19T10:10:16.981Z,40.20
2019-01-19T10:12:46.053Z,35.70
2019-01-19T10:15:16.599Z,36.10
2019-01-19T10:17:45.073Z,35.10
2019-01-19T10:20:16.725Z,33.10
2019-01-19T10:22:45.141Z,32.20
2019-01-19T10:25:15.368Z,31.10
2019-01-19T10:27:43.924Z,31.40
2019-01-19T10:30:18.195Z,30.50
2019-01-19T10:32:46.605Z,30.10
2019-01-19T10:35:16.170Z,29.70
2019-01-19T10:37:44.571Z,32.00
2019-01-19T10:40:16.249Z,34.00
2019-01-19T10:42:44.775Z,36.40
2019-01-19T10:45:16.610Z,36.00
2019-01-19T10:47:45.050Z,36.60
2019-01-19T10:50:15.652Z,36.90
2019-01-19T10:52:44.378Z,36.40
2019-01-19T10:55:14.915Z,36.80
2019-01-19T10:57:43.833Z,37.70
2019-01-19T11:00:25.015Z,37.10
2019-01-19T11:02:54.845Z,37.50
2019-01-19T11:05:34.612Z,38.70
2019-01-19T11:08:05.499Z,36.20
2019-01-19T11:10:39.112Z,36.10
2019-01-19T11:13:10.199Z,39.70
2019-01-19T11:15:41.533Z,39.80
2019-01-19T11:18:10.454Z,40.80
2019-01-19T11:20:39.878Z,40.40
2019-01-19T11:23:08.379Z,40.40
2019-01-19T11:25:36.825Z,41.30
2019-01-19T11:28:05.210Z,39.90
2019-01-19T11:30:34.169Z,40.20
2019-01-19T11:33:03.275Z,41.70
2019-01-19T11:35:31.815Z,41.60
2019-01-19T11:38:00.319Z,41.90
2019-01-19T11:40:34.843Z,40.80
2019-01-19T11:43:04.693Z,40.30
2019-01-19T11:45:34.052Z,41.30
2019-01-19T11:48:03.552Z,42.90
2019-01-19T11:50:32.478Z,44.50
2019-01-19T11:53:01.685Z,48.00
2019-01-19T11:55:30.414Z,48.60
2019-01-19T11:58:08.035Z,48.80
2019-01-19T12:00:56.317Z,50.20
2019-01-19T12:03:34.822Z,50.90
2019-01-19T12:06:04.041Z,53.20
2019-01-19T12:08:32.428Z,52.00
2019-01-19T12:11:01.167Z,54.00
2019-01-19T12:13:30.139Z,54.90
2019-01-19T12:15:59.449Z,55.10
2019-01-19T12:18:27.854Z,53.70
2019-01-19T12:20:56.281Z,54.60
2019-01-19T12:23:24.652Z,54.40
2019-01-19T12:25:53.022Z,57.00
2019-01-19T12:28:22.732Z,56.20
2019-01-19T12:30:51.525Z,57.90
2019-01-19T12:33:23.652Z,58.00
2019-01-19T12:35:53.081Z,53.90
2019-01-19T12:38:26.774Z,56.00
2019-01-19T12:40:53.137Z,56.90
2019-01-19T12:43:21.457Z,56.30
2019-01-19T12:45:53.027Z,57.60
2019-01-19T12:48:21.778Z,56.30
2019-01-19T12:50:50.103Z,54.60
2019-01-19T12:53:18.549Z,56.50
2019-01-19T12:55:47.476Z,56.60
2019-01-19T12:58:16.751Z,56.20
2019-01-19T13:00:45.166Z,57.30
2019-01-19T13:03:13.689Z,56.90
2019-01-19T13:05:46.016Z,57.00
2019-01-19T13:08:24.075Z,57.30
2019-01-19T13:11:04.145Z,59.60
2019-01-19T13:13:34.203Z,61.00
2019-01-19T13:16:08.629Z,59.80
2019-01-19T13:18:52.318Z,59.50
2019-01-19T13:21:27.067Z,59.20
2019-01-19T13:24:07.550Z,57.00
2019-01-19T13:27:03.508Z,57.70
2019-01-19T13:29:37.765Z,58.10
2019-01-19T13:32:09.398Z,57.30
2019-01-19T13:35:03.942Z,58.90
2019-01-19T13:37:38.181Z,59.30
2019-01-19T13:40:29.738Z,60.50
2019-01-19T13:43:07.084Z,61.90
2019-01-19T13:45:50.750Z,59.20
2019-01-19T13:48:39.136Z,58.50
2019-01-19T13:51:13.461Z,58.80
2019-01-19T13:53:50.833Z,61.30
2019-01-19T13:56:45.154Z,62.60
2019-01-19T13:59:34.239Z,60.00
2019-01-19T14:02:39.349Z,60.20
2019-01-19T14:05:32.205Z,61.40
2019-01-19T14:08:31.773Z,59.20
2019-01-19T14:11:21.654Z,59.50
2019-01-19T14:14:24.909Z,60.70
2019-01-19T14:16:56.532Z,61.30
2019-01-19T14:19:55.633Z,61.80
2019-01-19T14:23:00.319Z,63.00
2019-01-19T14:25:43.989Z,62.60
2019-01-19T14:28:18.644Z,61.60
2019-01-19T14:30:56.510Z,63.60
2019-01-19T14:33:40.439Z,64.10
2019-01-19T14:36:24.251Z,63.10
2019-01-19T14:38:58.049Z,64.00
2019-01-19T14:41:40.737Z,65.60
2019-01-19T14:44:45.787Z,65.70
2019-01-19T14:47:31.575Z,66.60
2019-01-19T14:50:19.662Z,65.80
2019-01-19T14:53:14.661Z,69.70
2019-01-19T14:55:46.433Z,68.80
2019-01-19T14:58:21.184Z,68.50
2019-01-19T15:00:52.885Z,69.80
2019-01-19T15:03:27.542Z,72.80
2019-01-19T15:06:14.022Z,72.60
2019-01-19T15:09:09.865Z,72.30
2019-01-19T15:12:02.838Z,73.80
2019-01-19T15:14:34.675Z,75.00
2019-01-19T15:17:18.019Z,75.80
2019-01-19T15:20:09.562Z,76.50
2019-01-19T15:23:13.287Z,78.00
2019-01-19T15:25:56.937Z,79.60
2019-01-19T15:28:37.354Z,78.80
2019-01-19T15:31:09.040Z,79.50
2019-01-19T15:34:00.521Z,82.00
2019-01-19T15:36:56.600Z,84.20
2019-01-19T15:39:31.297Z,84.60
2019-01-19T15:42:15.437Z,84.80
2019-01-19T15:45:03.787Z,86.40
2019-01-19T15:47:47.334Z,87.90
2019-01-19T15:50:33.321Z,89.40
2019-01-19T15:53:24.891Z,89.50
2019-01-19T15:56:13.018Z,90.00
2019-01-19T15:58:50.300Z,90.00
2019-01-19T16:01:33.929Z,90.30
2019-01-19T16:04:05.629Z,91.10
2019-01-19T16:06:54.651Z,91.00
2019-01-19T16:09:35.134Z,91.10
2019-01-19T16:12:09.590Z,90.60
2019-01-19T16:14:56.268Z,90.30
2019-01-19T16:17:57.823Z,90.30
2019-01-19T16:20:35.786Z,91.10
2019-01-19T16:23:16.421Z,90.50
2019-01-19T16:25:50.568Z,91.50
2019-01-19T16:28:54.328Z,91.70
2019-01-19T16:31:26.019Z,92.00
2019-01-19T16:34:20.439Z,92.60
2019-01-19T16:37:06.381Z,93.00
2019-01-19T16:39:54.469Z,93.00
2019-01-19T16:42:35.123Z,93.30
2019-01-19T16:45:28.730Z,93.20
2019-01-19T16:48:12.538Z,93.70
2019-01-19T16:50:44.345Z,93.80
2019-01-19T16:53:24.981Z,93.80
2019-01-19T16:56:11.748Z,93.80
2019-01-19T16:58:43.904Z,94.10
2019-01-19T17:01:15.606Z,94.10
2019-01-19T17:03:59.582Z,94.30
2019-01-19T17:06:37.005Z,94.60
2019-01-19T17:09:33.195Z,95.10
2019-01-19T17:12:19.734Z,95.10
2019-01-19T17:15:26.110Z,95.70
2019-01-19T17:18:09.585Z,95.60
2019-01-19T17:20:57.839Z,95.50
2019-01-19T17:23:56.799Z,95.60
2019-01-19T17:26:31.276Z,95.40
2019-01-19T17:29:15.332Z,95.00
2019-01-19T17:31:47.068Z,95.70
2019-01-19T17:34:30.749Z,95.80
2019-01-19T17:37:08.230Z,95.50
2019-01-19T17:39:42.653Z,95.80
2019-01-19T17:42:26.242Z,95.90
2019-01-19T17:45:23.362Z,95.90
2019-01-19T17:48:09.381Z,95.80
2019-01-19T17:50:56.069Z,95.80
2019-01-19T17:53:53.371Z,96.20
2019-01-19T17:56:40.037Z,96.40
2019-01-19T17:59:23.924Z,96.70
2019-01-19T18:02:30.325Z,96.50
2019-01-19T18:05:08.070Z,96.50
2019-01-19T18:08:08.781Z,97.20
2019-01-19T18:10:43.649Z,97.60
2019-01-19T18:13:27.465Z,97.20
2019-01-19T18:16:01.952Z,97.30
2019-01-19T18:18:39.775Z,97.30
2019-01-19T18:21:26.814Z,97.30
2019-01-19T18:24:10.510Z,98.10
2019-01-19T18:26:53.637Z,97.80
2019-01-19T18:29:36.721Z,97.80
2019-01-19T18:32:29.524Z,97.80
2019-01-19T18:35:16.023Z,98.00
2019-01-19T18:38:12.936Z,97.80
2019-01-19T18:40:59.672Z,97.70
2019-01-19T18:43:57.167Z,98.40
2019-01-19T18:46:34.569Z,98.40
2019-01-19T18:49:17.941Z,98.50
2019-01-19T18:52:04.559Z,98.70
2019-01-19T18:54:42.025Z,98.40
2019-01-19T18:57:38.029Z,98.40
2019-01-19T19:00:09.721Z,98.50
2019-01-19T19:02:50.408Z,98.50
2019-01-19T19:05:37.175Z,98.60
2019-01-19T19:08:14.643Z,98.70
2019-01-19T19:11:04.161Z,98.70
2019-01-19T19:13:48.882Z,99.00
2019-01-19T19:16:55.476Z,98.90
2019-01-19T19:19:45.310Z,98.70
2019-01-19T19:22:35.083Z,98.30
2019-01-19T19:25:15.720Z,98.80
2019-01-19T19:28:14.550Z,98.50
2019-01-19T19:31:11.889Z,98.60
2019-01-19T19:34:07.782Z,98.60
2019-01-19T19:36:48.788Z,99.10
2019-01-19T19:39:29.241Z,99.10
2019-01-19T19:42:18.838Z,99.40
2019-01-19T19:45:05.524Z,99.30
2019-01-19T19:47:44.642Z,99.40
2019-01-19T19:50:46.572Z,99.10
2019-01-19T19:53:15.384Z,99.50
2019-01-19T19:55:46.064Z,99.40
2019-01-19T19:58:14.470Z,99.90
2019-01-19T20:00:43.242Z,99.80
2019-01-19T20:03:11.882Z,99.50
2019-01-19T20:05:41.551Z,99.40
2019-01-19T20:08:09.945Z,99.60
2019-01-19T20:10:38.560Z,99.70
2019-01-19T20:13:08.535Z,99.70
2019-01-19T20:15:37.167Z,99.90
2019-01-19T20:18:06.117Z,99.90
2019-01-19T20:20:35.444Z,99.90
2019-01-19T20:23:05.031Z,99.90
2019-01-19T20:25:34.158Z,99.90
2019-01-19T20:28:02.915Z,99.90
2019-01-19T20:30:31.706Z,99.90
2019-01-19T20:33:00.321Z,99.90
2019-01-19T20:35:30.143Z,99.90
2019-01-19T20:38:00.380Z,99.90
2019-01-19T20:40:32.664Z,99.90
2019-01-19T20:43:05.120Z,99.90
2019-01-19T20:45:36.031Z,99.90
2019-01-19T20:48:08.755Z,99.90
2019-01-19T20:50:38.790Z,99.90
2019-01-19T20:53:09.089Z,99.90
2019-01-19T20:55:39.481Z,99.90
2019-01-19T20:58:11.127Z,99.90
2019-01-19T21:00:43.198Z,99.90
2019-01-19T21:03:14.513Z,99.90
2019-01-19T21:05:44.409Z,99.90
2019-01-19T21:08:13.732Z,99.90
2019-01-19T21:10:42.661Z,99.90
2019-01-19T21:13:14.153Z,99.90
2019-01-19T21:15:43.267Z,99.90
2019-01-19T21:18:12.593Z,99.90
2019-01-19T21:20:43.820Z,99.90
2019-01-19T21:23:12.314Z,99.90
2019-01-19T21:25:40.904Z,99.90
2019-01-19T21:28:09.507Z,99.90
2019-01-19T21:30:37.904Z,99.90
2019-01-19T21:33:06.864Z,99.90
2019-01-19T21:35:35.665Z,99.90
2019-01-19T21:38:04.180Z,99.90
2019-01-19T21:40:38.917Z,99.90
2019-01-19T21:43:03.318Z,99.90
2019-01-19T21:45:33.640Z,99.90
2019-01-19T21:48:02.205Z,99.90
2019-01-19T21:50:31.297Z,99.90
2019-01-19T21:53:00.196Z,99.90
2019-01-19T21:55:28.632Z,99.90
2019-01-19T21:57:57.072Z,99.90
2019-01-19T22:00:25.489Z,99.90
2019-01-19T22:03:00.205Z,99.90
2019-01-19T22:05:31.148Z,99.90
2019-01-19T22:07:59.639Z,99.90
2019-01-19T22:10:28.249Z,99.90
2019-01-19T22:12:56.653Z,99.90
2019-01-19T22:15:26.112Z,99.90
2019-01-19T22:17:55.691Z,99.90
2019-01-19T22:20:24.185Z,99.90
2019-01-19T22:22:56.088Z,99.90
2019-01-19T22:25:24.782Z,99.90
2019-01-19T22:27:55.587Z,99.90
2019-01-19T22:30:26.526Z,99.90
2019-01-19T22:32:56.737Z,99.90
2019-01-19T22:35:27.778Z,99.90
2019-01-19T22:37:56.328Z,99.90
2019-01-19T22:40:24.945Z,99.90
2019-01-19T22:42:54.483Z,99.90
2019-01-19T22:45:22.997Z,99.90
2019-01-19T22:47:51.460Z,99.90
2019-01-19T22:50:22.063Z,99.90
2019-01-19T22:52:51.920Z,99.90
2019-01-19T22:55:20.482Z,99.90
2019-01-19T22:57:50.950Z,99.90
2019-01-19T23:00:39.435Z,99.90
2019-01-19T23:03:08.157Z,99.90
2019-01-19T23:05:36.537Z,99.90
2019-01-19T23:08:05.089Z,99.90
2019-01-19T23:10:33.462Z,99.90
2019-01-19T23:13:02.209Z,99.90
2019-01-19T23:15:30.587Z,99.90
2019-01-19T23:17:59.090Z,99.90
2019-01-19T23:20:27.469Z,99.90
2019-01-19T23:22:55.961Z,99.90
2019-01-19T23:25:24.341Z,99.90
2019-01-19T23:27:53.229Z,99.90
2019-01-19T23:30:21.715Z,99.90
2019-01-19T23:32:50.643Z,99.90
2019-01-19T23:35:19.017Z,99.90
2019-01-19T23:37:47.426Z,99.90
2019-01-19T23:40:16.671Z,99.90
2019-01-19T23:42:47.455Z,99.90
2019-01-19T23:45:15.892Z,99.90
2019-01-19T23:47:44.320Z,99.90
2019-01-19T23:50:12.692Z,99.90
2019-01-19T23:52:41.123Z,99.90
2019-01-19T23:55:09.498Z,99.90
2019-01-19T23:57:38.125Z,99.90
